sensor_id;sensor_type;location;lat;lon;timestamp;P1;durP1;ratioP1;P2;durP2;ratioP2
8040;SDS011;4063;48.140;10.250;2024-01-30T00:01:51;11.60;;;6.23;;
8040;SDS011;4063;48.140;10.250;2024-01-30T00:04:17;12.03;;;7.27;;
8040;SDS011;4063;48.140;10.250;2024-01-30T00:06:46;10.37;;;6.43;;
8040;SDS011;4063;48.140;10.250;2024-01-30T00:09:12;9.17;;;6.47;;
8040;SDS011;4063;48.140;10.250;2024-01-30T00:11:38;9.47;;;6.47;;
8040;SDS011;4063;48.140;10.250;2024-01-30T00:14:04;10.33;;;6.70;;
8040;SDS011;4063;48.140;10.250;2024-01-30T00:16:30;8.33;;;5.73;;
8040;SDS011;4063;48.140;10.250;2024-01-30T00:18:56;8.17;;;5.73;;
8040;SDS011;4063;48.140;10.250;2024-01-30T00:21:22;8.67;;;5.77;;
8040;SDS011;4063;48.140;10.250;2024-01-30T00:23:48;13.07;;;6.63;;
8040;SDS011;4063;48.140;10.250;2024-01-30T00:26:14;7.17;;;5.63;;
8040;SDS011;4063;48.140;10.250;2024-01-30T00:28:41;10.77;;;6.40;;
8040;SDS011;4063;48.140;10.250;2024-01-30T00:31:07;9.83;;;6.67;;
8040;SDS011;4063;48.140;10.250;2024-01-30T00:33:33;10.37;;;6.37;;
8040;SDS011;4063;48.140;10.250;2024-01-30T00:35:59;8.83;;;6.47;;
8040;SDS011;4063;48.140;10.250;2024-01-30T00:38:25;8.23;;;6.33;;
8040;SDS011;4063;48.140;10.250;2024-01-30T00:40:51;8.30;;;6.27;;
8040;SDS011;4063;48.140;10.250;2024-01-30T00:43:18;8.23;;;5.87;;
8040;SDS011;4063;48.140;10.250;2024-01-30T00:45:44;8.37;;;5.77;;
8040;SDS011;4063;48.140;10.250;2024-01-30T00:48:10;11.57;;;6.53;;
8040;SDS011;4063;48.140;10.250;2024-01-30T00:50:36;8.13;;;6.00;;
8040;SDS011;4063;48.140;10.250;2024-01-30T00:53:02;9.63;;;6.50;;
8040;SDS011;4063;48.140;10.250;2024-01-30T00:55:28;9.07;;;6.60;;
8040;SDS011;4063;48.140;10.250;2024-01-30T00:57:54;9.53;;;6.50;;
8040;SDS011;4063;48.140;10.250;2024-01-30T01:00:21;8.13;;;5.90;;
8040;SDS011;4063;48.140;10.250;2024-01-30T01:02:48;6.27;;;5.43;;
8040;SDS011;4063;48.140;10.250;2024-01-30T01:05:14;11.33;;;6.40;;
8040;SDS011;4063;48.140;10.250;2024-01-30T01:07:40;8.53;;;6.07;;
8040;SDS011;4063;48.140;10.250;2024-01-30T01:10:07;8.77;;;6.03;;
8040;SDS011;4063;48.140;10.250;2024-01-30T01:12:33;6.13;;;5.27;;
8040;SDS011;4063;48.140;10.250;2024-01-30T01:14:59;7.13;;;5.70;;
8040;SDS011;4063;48.140;10.250;2024-01-30T01:17:25;9.83;;;5.70;;
8040;SDS011;4063;48.140;10.250;2024-01-30T01:19:52;7.57;;;5.43;;
8040;SDS011;4063;48.140;10.250;2024-01-30T01:22:18;8.07;;;5.37;;
8040;SDS011;4063;48.140;10.250;2024-01-30T01:24:43;8.23;;;5.47;;
8040;SDS011;4063;48.140;10.250;2024-01-30T01:27:09;9.07;;;5.63;;
8040;SDS011;4063;48.140;10.250;2024-01-30T01:29:36;7.40;;;5.23;;
8040;SDS011;4063;48.140;10.250;2024-01-30T01:32:02;6.80;;;4.90;;
8040;SDS011;4063;48.140;10.250;2024-01-30T01:34:28;12.60;;;5.83;;
8040;SDS011;4063;48.140;10.250;2024-01-30T01:36:54;8.47;;;5.73;;
8040;SDS011;4063;48.140;10.250;2024-01-30T01:39:20;7.63;;;5.77;;
8040;SDS011;4063;48.140;10.250;2024-01-30T01:41:46;12.27;;;5.60;;
8040;SDS011;4063;48.140;10.250;2024-01-30T01:44:12;10.77;;;5.30;;
8040;SDS011;4063;48.140;10.250;2024-01-30T01:46:38;8.13;;;5.60;;
8040;SDS011;4063;48.140;10.250;2024-01-30T01:49:05;9.30;;;5.93;;
8040;SDS011;4063;48.140;10.250;2024-01-30T01:51:31;9.13;;;5.40;;
8040;SDS011;4063;48.140;10.250;2024-01-30T01:53:59;7.33;;;5.63;;
8040;SDS011;4063;48.140;10.250;2024-01-30T01:56:27;7.10;;;5.47;;
8040;SDS011;4063;48.140;10.250;2024-01-30T01:58:54;9.07;;;5.73;;
8040;SDS011;4063;48.140;10.250;2024-01-30T02:01:21;7.43;;;4.97;;
8040;SDS011;4063;48.140;10.250;2024-01-30T02:03:48;8.13;;;5.77;;
8040;SDS011;4063;48.140;10.250;2024-01-30T02:06:14;8.43;;;5.50;;
8040;SDS011;4063;48.140;10.250;2024-01-30T02:08:40;7.30;;;5.27;;
8040;SDS011;4063;48.140;10.250;2024-01-30T02:11:07;8.37;;;6.27;;
8040;SDS011;4063;48.140;10.250;2024-01-30T02:13:33;10.23;;;5.77;;
8040;SDS011;4063;48.140;10.250;2024-01-30T02:15:59;10.60;;;6.00;;
8040;SDS011;4063;48.140;10.250;2024-01-30T02:18:26;7.10;;;5.50;;
8040;SDS011;4063;48.140;10.250;2024-01-30T02:20:53;6.93;;;5.33;;
8040;SDS011;4063;48.140;10.250;2024-01-30T02:23:19;7.73;;;4.67;;
8040;SDS011;4063;48.140;10.250;2024-01-30T02:25:45;5.73;;;5.00;;
8040;SDS011;4063;48.140;10.250;2024-01-30T02:28:12;6.13;;;4.80;;
8040;SDS011;4063;48.140;10.250;2024-01-30T02:30:39;6.83;;;4.43;;
8040;SDS011;4063;48.140;10.250;2024-01-30T02:33:05;5.47;;;4.40;;
8040;SDS011;4063;48.140;10.250;2024-01-30T02:35:31;6.33;;;4.83;;
8040;SDS011;4063;48.140;10.250;2024-01-30T02:37:58;5.87;;;4.60;;
8040;SDS011;4063;48.140;10.250;2024-01-30T02:40:24;7.70;;;4.93;;
8040;SDS011;4063;48.140;10.250;2024-01-30T02:42:50;8.30;;;5.53;;
8040;SDS011;4063;48.140;10.250;2024-01-30T02:45:16;6.30;;;4.73;;
8040;SDS011;4063;48.140;10.250;2024-01-30T02:47:42;5.97;;;4.53;;
8040;SDS011;4063;48.140;10.250;2024-01-30T02:50:08;4.73;;;4.30;;
8040;SDS011;4063;48.140;10.250;2024-01-30T02:52:34;5.43;;;4.43;;
8040;SDS011;4063;48.140;10.250;2024-01-30T02:55:01;5.93;;;4.23;;
8040;SDS011;4063;48.140;10.250;2024-01-30T02:57:27;6.63;;;4.50;;
8040;SDS011;4063;48.140;10.250;2024-01-30T02:59:53;5.63;;;4.20;;
8040;SDS011;4063;48.140;10.250;2024-01-30T03:02:19;5.07;;;3.83;;
8040;SDS011;4063;48.140;10.250;2024-01-30T03:04:45;4.90;;;4.03;;
8040;SDS011;4063;48.140;10.250;2024-01-30T03:07:11;5.30;;;4.27;;
8040;SDS011;4063;48.140;10.250;2024-01-30T03:09:37;6.33;;;4.37;;
8040;SDS011;4063;48.140;10.250;2024-01-30T03:12:04;5.90;;;4.13;;
8040;SDS011;4063;48.140;10.250;2024-01-30T03:14:30;6.00;;;4.10;;
8040;SDS011;4063;48.140;10.250;2024-01-30T03:16:57;6.80;;;4.17;;
8040;SDS011;4063;48.140;10.250;2024-01-30T03:19:23;4.70;;;3.67;;
8040;SDS011;4063;48.140;10.250;2024-01-30T03:21:49;5.30;;;4.20;;
8040;SDS011;4063;48.140;10.250;2024-01-30T03:24:16;12.87;;;8.30;;
8040;SDS011;4063;48.140;10.250;2024-01-30T03:26:42;10.83;;;8.43;;
8040;SDS011;4063;48.140;10.250;2024-01-30T03:29:08;8.17;;;5.20;;
8040;SDS011;4063;48.140;10.250;2024-01-30T03:31:34;7.50;;;5.17;;
8040;SDS011;4063;48.140;10.250;2024-01-30T03:34:00;5.43;;;4.77;;
8040;SDS011;4063;48.140;10.250;2024-01-30T03:36:26;4.93;;;4.00;;
8040;SDS011;4063;48.140;10.250;2024-01-30T03:38:52;5.30;;;3.97;;
8040;SDS011;4063;48.140;10.250;2024-01-30T03:41:18;6.73;;;4.90;;
8040;SDS011;4063;48.140;10.250;2024-01-30T03:43:44;7.43;;;4.70;;
8040;SDS011;4063;48.140;10.250;2024-01-30T03:46:13;5.47;;;4.17;;
8040;SDS011;4063;48.140;10.250;2024-01-30T03:48:39;5.50;;;4.53;;
8040;SDS011;4063;48.140;10.250;2024-01-30T03:51:05;7.17;;;4.73;;
8040;SDS011;4063;48.140;10.250;2024-01-30T03:53:31;6.70;;;5.03;;
8040;SDS011;4063;48.140;10.250;2024-01-30T03:55:57;6.47;;;4.47;;
8040;SDS011;4063;48.140;10.250;2024-01-30T03:58:23;8.37;;;5.07;;
8040;SDS011;4063;48.140;10.250;2024-01-30T04:00:49;8.77;;;4.60;;
8040;SDS011;4063;48.140;10.250;2024-01-30T04:03:15;7.83;;;4.87;;
8040;SDS011;4063;48.140;10.250;2024-01-30T04:05:41;5.67;;;4.50;;
8040;SDS011;4063;48.140;10.250;2024-01-30T04:08:07;6.53;;;4.30;;
8040;SDS011;4063;48.140;10.250;2024-01-30T04:10:34;8.83;;;4.50;;
8040;SDS011;4063;48.140;10.250;2024-01-30T04:13:00;7.17;;;4.77;;
8040;SDS011;4063;48.140;10.250;2024-01-30T04:15:26;4.60;;;3.70;;
8040;SDS011;4063;48.140;10.250;2024-01-30T04:17:52;6.90;;;3.87;;
8040;SDS011;4063;48.140;10.250;2024-01-30T04:20:18;9.50;;;6.57;;
8040;SDS011;4063;48.140;10.250;2024-01-30T04:22:44;10.43;;;6.20;;
8040;SDS011;4063;48.140;10.250;2024-01-30T04:25:11;7.93;;;5.67;;
8040;SDS011;4063;48.140;10.250;2024-01-30T04:27:37;7.97;;;5.03;;
8040;SDS011;4063;48.140;10.250;2024-01-30T04:30:03;8.00;;;5.00;;
8040;SDS011;4063;48.140;10.250;2024-01-30T04:32:31;9.40;;;4.83;;
8040;SDS011;4063;48.140;10.250;2024-01-30T04:34:57;10.33;;;4.37;;
8040;SDS011;4063;48.140;10.250;2024-01-30T04:37:23;6.93;;;4.87;;
8040;SDS011;4063;48.140;10.250;2024-01-30T04:39:49;7.33;;;4.53;;
8040;SDS011;4063;48.140;10.250;2024-01-30T04:42:16;6.33;;;4.50;;
8040;SDS011;4063;48.140;10.250;2024-01-30T04:44:42;7.17;;;5.60;;
8040;SDS011;4063;48.140;10.250;2024-01-30T04:47:08;11.43;;;5.63;;
8040;SDS011;4063;48.140;10.250;2024-01-30T04:49:36;10.17;;;5.77;;
8040;SDS011;4063;48.140;10.250;2024-01-30T04:52:02;6.10;;;4.60;;
8040;SDS011;4063;48.140;10.250;2024-01-30T04:54:28;5.07;;;4.57;;
8040;SDS011;4063;48.140;10.250;2024-01-30T04:56:54;5.33;;;4.60;;
8040;SDS011;4063;48.140;10.250;2024-01-30T04:59:20;9.80;;;4.83;;
8040;SDS011;4063;48.140;10.250;2024-01-30T05:01:46;8.70;;;5.00;;
8040;SDS011;4063;48.140;10.250;2024-01-30T05:04:11;7.87;;;5.43;;
8040;SDS011;4063;48.140;10.250;2024-01-30T05:06:37;10.40;;;6.70;;
8040;SDS011;4063;48.140;10.250;2024-01-30T05:09:03;9.57;;;6.90;;
8040;SDS011;4063;48.140;10.250;2024-01-30T05:11:30;12.60;;;7.63;;
8040;SDS011;4063;48.140;10.250;2024-01-30T05:13:56;10.20;;;6.67;;
8040;SDS011;4063;48.140;10.250;2024-01-30T05:16:22;10.90;;;6.70;;
8040;SDS011;4063;48.140;10.250;2024-01-30T05:18:48;9.63;;;6.87;;
8040;SDS011;4063;48.140;10.250;2024-01-30T05:21:14;8.57;;;5.63;;
8040;SDS011;4063;48.140;10.250;2024-01-30T05:23:40;7.17;;;5.63;;
8040;SDS011;4063;48.140;10.250;2024-01-30T05:26:06;13.97;;;7.33;;
8040;SDS011;4063;48.140;10.250;2024-01-30T05:28:32;18.17;;;9.10;;
8040;SDS011;4063;48.140;10.250;2024-01-30T05:30:58;18.87;;;9.93;;
8040;SDS011;4063;48.140;10.250;2024-01-30T05:33:24;18.23;;;8.67;;
8040;SDS011;4063;48.140;10.250;2024-01-30T05:35:50;11.83;;;6.53;;
8040;SDS011;4063;48.140;10.250;2024-01-30T05:38:19;8.00;;;5.37;;
8040;SDS011;4063;48.140;10.250;2024-01-30T05:40:45;7.27;;;4.77;;
8040;SDS011;4063;48.140;10.250;2024-01-30T05:43:12;8.20;;;5.27;;
8040;SDS011;4063;48.140;10.250;2024-01-30T05:45:38;10.70;;;6.10;;
8040;SDS011;4063;48.140;10.250;2024-01-30T05:48:04;10.23;;;6.43;;
8040;SDS011;4063;48.140;10.250;2024-01-30T05:50:30;11.30;;;5.60;;
8040;SDS011;4063;48.140;10.250;2024-01-30T05:52:56;9.83;;;6.10;;
8040;SDS011;4063;48.140;10.250;2024-01-30T05:55:22;8.83;;;5.70;;
8040;SDS011;4063;48.140;10.250;2024-01-30T05:57:48;9.10;;;5.03;;
8040;SDS011;4063;48.140;10.250;2024-01-30T06:00:14;8.53;;;5.07;;
8040;SDS011;4063;48.140;10.250;2024-01-30T06:02:40;10.17;;;5.60;;
8040;SDS011;4063;48.140;10.250;2024-01-30T06:05:06;8.00;;;4.70;;
8040;SDS011;4063;48.140;10.250;2024-01-30T06:07:32;5.97;;;4.43;;
8040;SDS011;4063;48.140;10.250;2024-01-30T06:09:58;5.83;;;4.27;;
8040;SDS011;4063;48.140;10.250;2024-01-30T06:12:27;7.07;;;4.87;;
8040;SDS011;4063;48.140;10.250;2024-01-30T06:14:53;13.07;;;6.53;;
8040;SDS011;4063;48.140;10.250;2024-01-30T06:17:21;22.23;;;10.23;;
8040;SDS011;4063;48.140;10.250;2024-01-30T06:19:47;46.60;;;19.47;;
8040;SDS011;4063;48.140;10.250;2024-01-30T06:22:13;62.80;;;26.77;;
8040;SDS011;4063;48.140;10.250;2024-01-30T06:24:39;67.20;;;28.33;;
8040;SDS011;4063;48.140;10.250;2024-01-30T06:27:05;58.23;;;22.33;;
8040;SDS011;4063;48.140;10.250;2024-01-30T06:29:31;63.73;;;23.40;;
8040;SDS011;4063;48.140;10.250;2024-01-30T06:31:57;65.83;;;25.80;;
8040;SDS011;4063;48.140;10.250;2024-01-30T06:34:23;44.50;;;19.90;;
8040;SDS011;4063;48.140;10.250;2024-01-30T06:36:51;42.07;;;16.37;;
8040;SDS011;4063;48.140;10.250;2024-01-30T06:39:17;27.97;;;14.20;;
8040;SDS011;4063;48.140;10.250;2024-01-30T06:41:43;22.53;;;12.27;;
8040;SDS011;4063;48.140;10.250;2024-01-30T06:44:11;13.67;;;9.53;;
8040;SDS011;4063;48.140;10.250;2024-01-30T06:46:37;11.00;;;7.27;;
8040;SDS011;4063;48.140;10.250;2024-01-30T06:49:03;9.70;;;5.20;;
8040;SDS011;4063;48.140;10.250;2024-01-30T06:51:29;6.90;;;4.57;;
8040;SDS011;4063;48.140;10.250;2024-01-30T06:53:55;6.67;;;4.10;;
8040;SDS011;4063;48.140;10.250;2024-01-30T06:56:21;9.47;;;4.90;;
8040;SDS011;4063;48.140;10.250;2024-01-30T06:58:51;8.33;;;6.13;;
8040;SDS011;4063;48.140;10.250;2024-01-30T07:01:17;6.80;;;5.10;;
8040;SDS011;4063;48.140;10.250;2024-01-30T07:03:43;13.07;;;6.87;;
8040;SDS011;4063;48.140;10.250;2024-01-30T07:06:09;9.10;;;6.03;;
8040;SDS011;4063;48.140;10.250;2024-01-30T07:08:38;5.93;;;5.33;;
8040;SDS011;4063;48.140;10.250;2024-01-30T07:11:07;6.87;;;4.73;;
8040;SDS011;4063;48.140;10.250;2024-01-30T07:13:34;6.50;;;4.60;;
8040;SDS011;4063;48.140;10.250;2024-01-30T07:16:00;6.47;;;4.80;;
8040;SDS011;4063;48.140;10.250;2024-01-30T07:18:26;5.83;;;3.60;;
8040;SDS011;4063;48.140;10.250;2024-01-30T07:20:52;7.10;;;4.47;;
8040;SDS011;4063;48.140;10.250;2024-01-30T07:23:18;4.57;;;3.97;;
8040;SDS011;4063;48.140;10.250;2024-01-30T07:25:44;5.60;;;4.00;;
8040;SDS011;4063;48.140;10.250;2024-01-30T07:28:10;5.00;;;4.50;;
8040;SDS011;4063;48.140;10.250;2024-01-30T07:30:41;8.20;;;4.33;;
8040;SDS011;4063;48.140;10.250;2024-01-30T07:33:08;3.90;;;3.60;;
8040;SDS011;4063;48.140;10.250;2024-01-30T07:35:36;4.63;;;3.50;;
8040;SDS011;4063;48.140;10.250;2024-01-30T07:38:02;5.03;;;3.70;;
8040;SDS011;4063;48.140;10.250;2024-01-30T07:40:28;5.80;;;3.90;;
8040;SDS011;4063;48.140;10.250;2024-01-30T07:42:55;4.80;;;4.03;;
8040;SDS011;4063;48.140;10.250;2024-01-30T07:45:21;4.97;;;4.33;;
8040;SDS011;4063;48.140;10.250;2024-01-30T07:47:49;6.90;;;4.87;;
8040;SDS011;4063;48.140;10.250;2024-01-30T07:50:15;6.87;;;4.50;;
8040;SDS011;4063;48.140;10.250;2024-01-30T07:52:41;8.00;;;4.50;;
8040;SDS011;4063;48.140;10.250;2024-01-30T07:55:07;6.23;;;4.63;;
8040;SDS011;4063;48.140;10.250;2024-01-30T07:57:34;5.73;;;4.30;;
8040;SDS011;4063;48.140;10.250;2024-01-30T08:00:00;5.00;;;4.50;;
8040;SDS011;4063;48.140;10.250;2024-01-30T08:02:26;8.23;;;4.43;;
8040;SDS011;4063;48.140;10.250;2024-01-30T08:04:52;8.87;;;4.60;;
8040;SDS011;4063;48.140;10.250;2024-01-30T08:07:18;5.67;;;4.20;;
8040;SDS011;4063;48.140;10.250;2024-01-30T08:09:44;6.27;;;4.50;;
8040;SDS011;4063;48.140;10.250;2024-01-30T08:12:10;6.87;;;4.67;;
8040;SDS011;4063;48.140;10.250;2024-01-30T08:14:37;6.27;;;4.20;;
8040;SDS011;4063;48.140;10.250;2024-01-30T08:17:04;5.97;;;4.53;;
8040;SDS011;4063;48.140;10.250;2024-01-30T08:19:30;5.00;;;4.20;;
8040;SDS011;4063;48.140;10.250;2024-01-30T08:21:56;7.33;;;4.40;;
8040;SDS011;4063;48.140;10.250;2024-01-30T08:24:22;6.60;;;4.73;;
8040;SDS011;4063;48.140;10.250;2024-01-30T08:26:48;5.63;;;3.67;;
8040;SDS011;4063;48.140;10.250;2024-01-30T08:29:13;6.20;;;4.17;;
8040;SDS011;4063;48.140;10.250;2024-01-30T08:31:39;4.70;;;3.63;;
8040;SDS011;4063;48.140;10.250;2024-01-30T08:34:05;5.40;;;4.30;;
8040;SDS011;4063;48.140;10.250;2024-01-30T08:36:31;5.43;;;4.07;;
8040;SDS011;4063;48.140;10.250;2024-01-30T08:38:59;6.70;;;4.60;;
8040;SDS011;4063;48.140;10.250;2024-01-30T08:41:25;5.30;;;4.27;;
8040;SDS011;4063;48.140;10.250;2024-01-30T08:43:52;11.10;;;6.83;;
8040;SDS011;4063;48.140;10.250;2024-01-30T08:46:18;6.10;;;5.17;;
8040;SDS011;4063;48.140;10.250;2024-01-30T08:48:44;7.57;;;5.53;;
8040;SDS011;4063;48.140;10.250;2024-01-30T08:51:11;7.33;;;5.07;;
8040;SDS011;4063;48.140;10.250;2024-01-30T08:53:37;5.73;;;4.70;;
8040;SDS011;4063;48.140;10.250;2024-01-30T08:56:03;9.17;;;4.63;;
8040;SDS011;4063;48.140;10.250;2024-01-30T08:58:29;6.53;;;5.83;;
8040;SDS011;4063;48.140;10.250;2024-01-30T09:00:55;7.57;;;5.60;;
8040;SDS011;4063;48.140;10.250;2024-01-30T09:03:21;6.77;;;5.60;;
8040;SDS011;4063;48.140;10.250;2024-01-30T09:05:47;7.70;;;5.27;;
8040;SDS011;4063;48.140;10.250;2024-01-30T09:08:13;5.97;;;4.97;;
8040;SDS011;4063;48.140;10.250;2024-01-30T09:10:39;6.33;;;4.70;;
8040;SDS011;4063;48.140;10.250;2024-01-30T09:13:07;5.77;;;5.17;;
8040;SDS011;4063;48.140;10.250;2024-01-30T09:15:33;7.87;;;5.87;;
8040;SDS011;4063;48.140;10.250;2024-01-30T09:18:00;6.13;;;4.77;;
8040;SDS011;4063;48.140;10.250;2024-01-30T09:20:26;7.07;;;5.00;;
8040;SDS011;4063;48.140;10.250;2024-01-30T09:22:52;7.57;;;4.30;;
8040;SDS011;4063;48.140;10.250;2024-01-30T09:25:18;8.93;;;4.83;;
8040;SDS011;4063;48.140;10.250;2024-01-30T09:27:44;6.13;;;4.80;;
8040;SDS011;4063;48.140;10.250;2024-01-30T09:30:10;7.23;;;4.60;;
8040;SDS011;4063;48.140;10.250;2024-01-30T09:32:39;5.23;;;4.17;;
8040;SDS011;4063;48.140;10.250;2024-01-30T09:35:05;4.97;;;3.60;;
8040;SDS011;4063;48.140;10.250;2024-01-30T09:37:31;5.80;;;4.50;;
8040;SDS011;4063;48.140;10.250;2024-01-30T09:39:57;6.73;;;4.00;;
8040;SDS011;4063;48.140;10.250;2024-01-30T09:42:27;6.07;;;4.03;;
8040;SDS011;4063;48.140;10.250;2024-01-30T09:44:54;4.50;;;3.67;;
8040;SDS011;4063;48.140;10.250;2024-01-30T09:47:20;5.00;;;3.57;;
8040;SDS011;4063;48.140;10.250;2024-01-30T09:49:47;4.63;;;3.37;;
8040;SDS011;4063;48.140;10.250;2024-01-30T09:52:13;4.90;;;3.73;;
8040;SDS011;4063;48.140;10.250;2024-01-30T09:54:41;3.80;;;3.13;;
8040;SDS011;4063;48.140;10.250;2024-01-30T09:57:07;5.17;;;3.80;;
8040;SDS011;4063;48.140;10.250;2024-01-30T09:59:34;5.87;;;3.70;;
8040;SDS011;4063;48.140;10.250;2024-01-30T10:02:00;6.33;;;3.37;;
8040;SDS011;4063;48.140;10.250;2024-01-30T10:04:28;4.20;;;3.10;;
8040;SDS011;4063;48.140;10.250;2024-01-30T10:06:54;4.77;;;4.20;;
8040;SDS011;4063;48.140;10.250;2024-01-30T10:09:20;5.87;;;4.30;;
8040;SDS011;4063;48.140;10.250;2024-01-30T10:11:46;4.17;;;3.40;;
8040;SDS011;4063;48.140;10.250;2024-01-30T10:14:12;6.90;;;4.00;;
8040;SDS011;4063;48.140;10.250;2024-01-30T10:16:38;4.60;;;3.63;;
8040;SDS011;4063;48.140;10.250;2024-01-30T10:19:04;5.53;;;4.00;;
8040;SDS011;4063;48.140;10.250;2024-01-30T10:21:30;4.30;;;3.77;;
8040;SDS011;4063;48.140;10.250;2024-01-30T10:23:56;5.10;;;3.83;;
8040;SDS011;4063;48.140;10.250;2024-01-30T10:26:22;4.90;;;3.67;;
8040;SDS011;4063;48.140;10.250;2024-01-30T10:28:48;4.33;;;3.30;;
8040;SDS011;4063;48.140;10.250;2024-01-30T10:31:18;7.43;;;3.40;;
8040;SDS011;4063;48.140;10.250;2024-01-30T10:33:44;5.17;;;3.77;;
8040;SDS011;4063;48.140;10.250;2024-01-30T10:36:13;4.23;;;3.57;;
8040;SDS011;4063;48.140;10.250;2024-01-30T10:38:42;4.17;;;3.20;;
8040;SDS011;4063;48.140;10.250;2024-01-30T10:41:11;7.20;;;3.40;;
8040;SDS011;4063;48.140;10.250;2024-01-30T10:43:41;3.83;;;3.10;;
8040;SDS011;4063;48.140;10.250;2024-01-30T10:46:11;4.37;;;3.03;;
8040;SDS011;4063;48.140;10.250;2024-01-30T10:48:42;3.70;;;3.30;;
8040;SDS011;4063;48.140;10.250;2024-01-30T10:51:09;4.40;;;3.67;;
8040;SDS011;4063;48.140;10.250;2024-01-30T10:53:35;7.83;;;3.37;;
8040;SDS011;4063;48.140;10.250;2024-01-30T10:56:02;5.70;;;3.47;;
8040;SDS011;4063;48.140;10.250;2024-01-30T10:58:29;3.30;;;3.00;;
8040;SDS011;4063;48.140;10.250;2024-01-30T11:00:55;3.63;;;3.13;;
8040;SDS011;4063;48.140;10.250;2024-01-30T11:03:21;5.43;;;3.67;;
8040;SDS011;4063;48.140;10.250;2024-01-30T11:05:51;4.13;;;3.13;;
8040;SDS011;4063;48.140;10.250;2024-01-30T11:08:24;4.23;;;3.47;;
8040;SDS011;4063;48.140;10.250;2024-01-30T11:10:57;5.80;;;3.50;;
8040;SDS011;4063;48.140;10.250;2024-01-30T11:13:26;5.10;;;3.73;;
8040;SDS011;4063;48.140;10.250;2024-01-30T11:15:52;6.20;;;3.80;;
8040;SDS011;4063;48.140;10.250;2024-01-30T11:18:22;3.60;;;3.13;;
8040;SDS011;4063;48.140;10.250;2024-01-30T11:20:49;7.90;;;3.77;;
8040;SDS011;4063;48.140;10.250;2024-01-30T11:23:15;4.00;;;3.50;;
8040;SDS011;4063;48.140;10.250;2024-01-30T11:25:43;5.80;;;4.00;;
8040;SDS011;4063;48.140;10.250;2024-01-30T11:28:14;8.73;;;4.57;;
8040;SDS011;4063;48.140;10.250;2024-01-30T11:30:41;6.03;;;4.70;;
8040;SDS011;4063;48.140;10.250;2024-01-30T11:33:11;5.30;;;4.60;;
8040;SDS011;4063;48.140;10.250;2024-01-30T11:35:38;7.40;;;4.83;;
8040;SDS011;4063;48.140;10.250;2024-01-30T11:38:05;5.20;;;4.57;;
8040;SDS011;4063;48.140;10.250;2024-01-30T11:40:31;6.40;;;5.20;;
8040;SDS011;4063;48.140;10.250;2024-01-30T11:43:01;8.80;;;5.20;;
8040;SDS011;4063;48.140;10.250;2024-01-30T11:45:27;6.70;;;4.47;;
8040;SDS011;4063;48.140;10.250;2024-01-30T11:47:54;6.23;;;4.97;;
8040;SDS011;4063;48.140;10.250;2024-01-30T11:50:20;8.50;;;4.77;;
8040;SDS011;4063;48.140;10.250;2024-01-30T11:52:47;10.63;;;5.10;;
8040;SDS011;4063;48.140;10.250;2024-01-30T11:55:13;9.10;;;5.60;;
8040;SDS011;4063;48.140;10.250;2024-01-30T11:57:40;6.73;;;5.30;;
8040;SDS011;4063;48.140;10.250;2024-01-30T12:00:06;9.87;;;5.43;;
8040;SDS011;4063;48.140;10.250;2024-01-30T12:02:36;5.73;;;4.83;;
8040;SDS011;4063;48.140;10.250;2024-01-30T12:05:08;10.17;;;5.70;;
8040;SDS011;4063;48.140;10.250;2024-01-30T12:07:34;6.30;;;5.30;;
8040;SDS011;4063;48.140;10.250;2024-01-30T12:10:01;8.60;;;5.53;;
8040;SDS011;4063;48.140;10.250;2024-01-30T12:12:27;6.40;;;5.13;;
8040;SDS011;4063;48.140;10.250;2024-01-30T12:14:54;6.80;;;5.10;;
8040;SDS011;4063;48.140;10.250;2024-01-30T12:17:38;6.37;;;5.10;;
8040;SDS011;4063;48.140;10.250;2024-01-30T12:20:12;10.87;;;5.87;;
8040;SDS011;4063;48.140;10.250;2024-01-30T12:22:45;9.30;;;5.67;;
8040;SDS011;4063;48.140;10.250;2024-01-30T12:25:12;7.97;;;6.17;;
8040;SDS011;4063;48.140;10.250;2024-01-30T12:27:38;6.50;;;5.70;;
8040;SDS011;4063;48.140;10.250;2024-01-30T12:30:05;8.33;;;5.97;;
8040;SDS011;4063;48.140;10.250;2024-01-30T12:32:34;7.10;;;5.63;;
8040;SDS011;4063;48.140;10.250;2024-01-30T12:35:00;10.40;;;6.47;;
8040;SDS011;4063;48.140;10.250;2024-01-30T12:37:26;11.33;;;6.80;;
8040;SDS011;4063;48.140;10.250;2024-01-30T12:39:52;9.67;;;6.47;;
8040;SDS011;4063;48.140;10.250;2024-01-30T12:42:19;7.47;;;6.07;;
8040;SDS011;4063;48.140;10.250;2024-01-30T12:44:46;8.07;;;6.07;;
8040;SDS011;4063;48.140;10.250;2024-01-30T12:47:12;7.23;;;5.40;;
8040;SDS011;4063;48.140;10.250;2024-01-30T12:49:41;9.47;;;6.13;;
8040;SDS011;4063;48.140;10.250;2024-01-30T12:52:07;9.40;;;5.67;;
8040;SDS011;4063;48.140;10.250;2024-01-30T12:54:33;8.33;;;5.13;;
8040;SDS011;4063;48.140;10.250;2024-01-30T12:56:59;6.57;;;5.60;;
8040;SDS011;4063;48.140;10.250;2024-01-30T12:59:25;8.63;;;5.47;;
8040;SDS011;4063;48.140;10.250;2024-01-30T13:01:51;7.30;;;5.10;;
8040;SDS011;4063;48.140;10.250;2024-01-30T13:04:17;10.00;;;5.83;;
8040;SDS011;4063;48.140;10.250;2024-01-30T13:06:43;8.83;;;5.40;;
8040;SDS011;4063;48.140;10.250;2024-01-30T13:09:09;5.83;;;5.10;;
8040;SDS011;4063;48.140;10.250;2024-01-30T13:11:35;7.37;;;5.20;;
8040;SDS011;4063;48.140;10.250;2024-01-30T13:14:01;6.57;;;5.67;;
8040;SDS011;4063;48.140;10.250;2024-01-30T13:16:28;6.80;;;5.27;;
8040;SDS011;4063;48.140;10.250;2024-01-30T13:18:54;8.43;;;5.00;;
8040;SDS011;4063;48.140;10.250;2024-01-30T13:21:20;7.30;;;5.00;;
8040;SDS011;4063;48.140;10.250;2024-01-30T13:23:46;6.40;;;5.40;;
8040;SDS011;4063;48.140;10.250;2024-01-30T13:26:12;5.90;;;5.30;;
8040;SDS011;4063;48.140;10.250;2024-01-30T13:28:38;6.20;;;4.67;;
8040;SDS011;4063;48.140;10.250;2024-01-30T13:31:04;7.50;;;5.80;;
8040;SDS011;4063;48.140;10.250;2024-01-30T13:33:31;8.90;;;5.77;;
8040;SDS011;4063;48.140;10.250;2024-01-30T13:35:57;8.13;;;5.53;;
8040;SDS011;4063;48.140;10.250;2024-01-30T13:38:23;8.40;;;5.43;;
8040;SDS011;4063;48.140;10.250;2024-01-30T13:40:49;8.03;;;5.63;;
8040;SDS011;4063;48.140;10.250;2024-01-30T13:43:15;6.47;;;5.60;;
8040;SDS011;4063;48.140;10.250;2024-01-30T13:45:42;8.37;;;5.97;;
8040;SDS011;4063;48.140;10.250;2024-01-30T13:48:08;8.50;;;6.23;;
8040;SDS011;4063;48.140;10.250;2024-01-30T13:50:34;7.70;;;6.57;;
8040;SDS011;4063;48.140;10.250;2024-01-30T13:53:01;9.13;;;6.63;;
8040;SDS011;4063;48.140;10.250;2024-01-30T13:55:27;7.80;;;6.73;;
8040;SDS011;4063;48.140;10.250;2024-01-30T13:57:53;8.90;;;7.50;;
8040;SDS011;4063;48.140;10.250;2024-01-30T14:00:20;8.27;;;6.90;;
8040;SDS011;4063;48.140;10.250;2024-01-30T14:02:47;8.33;;;6.87;;
8040;SDS011;4063;48.140;10.250;2024-01-30T14:05:13;8.47;;;6.53;;
8040;SDS011;4063;48.140;10.250;2024-01-30T14:07:40;9.80;;;6.87;;
8040;SDS011;4063;48.140;10.250;2024-01-30T14:10:07;8.77;;;6.87;;
8040;SDS011;4063;48.140;10.250;2024-01-30T14:12:33;9.90;;;6.50;;
8040;SDS011;4063;48.140;10.250;2024-01-30T14:14:59;10.00;;;5.97;;
8040;SDS011;4063;48.140;10.250;2024-01-30T14:17:25;8.73;;;6.00;;
8040;SDS011;4063;48.140;10.250;2024-01-30T14:19:51;7.50;;;6.17;;
8040;SDS011;4063;48.140;10.250;2024-01-30T14:22:17;8.50;;;6.40;;
8040;SDS011;4063;48.140;10.250;2024-01-30T14:24:43;7.63;;;5.70;;
8040;SDS011;4063;48.140;10.250;2024-01-30T14:27:09;7.07;;;5.60;;
8040;SDS011;4063;48.140;10.250;2024-01-30T14:29:35;7.50;;;6.03;;
8040;SDS011;4063;48.140;10.250;2024-01-30T14:32:01;11.47;;;6.20;;
8040;SDS011;4063;48.140;10.250;2024-01-30T14:34:29;8.73;;;5.93;;
8040;SDS011;4063;48.140;10.250;2024-01-30T14:36:55;6.27;;;5.30;;
8040;SDS011;4063;48.140;10.250;2024-01-30T14:39:21;7.23;;;5.63;;
8040;SDS011;4063;48.140;10.250;2024-01-30T14:41:47;5.67;;;4.97;;
8040;SDS011;4063;48.140;10.250;2024-01-30T14:44:13;6.03;;;4.80;;
8040;SDS011;4063;48.140;10.250;2024-01-30T14:46:39;5.87;;;4.97;;
8040;SDS011;4063;48.140;10.250;2024-01-30T14:49:06;6.50;;;4.97;;
8040;SDS011;4063;48.140;10.250;2024-01-30T14:51:32;10.80;;;4.87;;
8040;SDS011;4063;48.140;10.250;2024-01-30T14:53:59;7.93;;;5.30;;